Time;durP1;ratioP1;P1;durP2;ratioP2;P2;SDS_P1;SDS_P2;PMS_P1;PMS_P2;Temp;Humidity;BMP_temperature;BMP_pressure;BME280_temperature;BME280_humidity;BME280_pressure;Samples;Min_cycle;Max_cycle;Signal;HPM_P1;HPM_P2
2021/11/07 00:06:21;;;;;;;42.53;21.83;;;7.00;99.90;;;;;;4123583;28;20038;-57
2021/11/07 00:08:37;;;;;;;38.67;21.27;;;7.10;99.90;;;;;;4123025;28;20054;-62
2021/11/07 00:10:43;;;;;;;34.53;19.30;;;7.00;99.90;;;;;;4122734;28;20093;-63
2021/11/07 00:12:47;;;;;;;34.80;19.80;;;7.00;99.90;;;;;;4124307;28;20430;-64
2021/11/07 00:14:50;;;;;;;38.87;19.77;;;7.00;99.90;;;;;;4123154;28;20050;-62
2021/11/07 00:16:56;;;;;;;34.83;20.13;;;7.00;99.90;;;;;;4124428;28;20495;-57
2021/11/07 00:21:13;;;;;;;44.17;20.85;;;7.00;99.90;;;;;;4125073;28;20454;-71
2021/11/07 00:27:37;;;;;;;37.57;19.37;;;7.00;99.90;;;;;;4123433;28;21031;-69
2021/11/07 00:29:47;;;;;;;39.07;21.33;;;7.00;99.90;;;;;;4124801;28;20077;-68
2021/11/07 00:37:05;;;;;;;39.87;20.77;;;6.90;99.90;;;;;;4122105;28;20097;-61
2021/11/07 00:39:18;;;;;;;46.42;21.67;;;6.90;99.90;;;;;;4116504;28;20042;-60
2021/11/07 00:41:14;;;;;;;41.10;20.37;;;6.90;99.90;;;;;;4116004;28;20542;-61
2021/11/07 00:43:25;;;;;;;41.23;21.07;;;6.90;99.90;;;;;;4124674;28;20027;-66
2021/11/07 00:47:40;;;;;;;40.63;21.10;;;6.80;99.90;;;;;;4124922;28;20506;-60
2021/11/07 00:49:47;;;;;;;49.57;22.17;;;6.80;99.90;;;;;;4122999;28;20046;-59
2021/11/07 01:01:07;;;;;;;40.67;20.60;;;6.80;99.90;;;;;;4096914;28;20499;-61
2021/11/07 01:03:13;;;;;;;43.50;21.40;;;6.80;99.90;;;;;;4107365;28;20085;-57
2021/11/07 01:05:22;;;;;;;43.37;21.23;;;6.80;99.90;;;;;;4107824;28;20051;-60
2021/11/07 01:07:24;;;;;;;44.17;21.27;;;6.80;99.90;;;;;;4106998;28;20054;-64
2021/11/07 01:09:25;;;;;;;44.17;21.90;;;6.80;99.90;;;;;;4109012;28;20089;-65
2021/11/07 01:11:27;;;;;;;42.00;21.43;;;6.80;99.90;;;;;;4107255;28;20035;-70
2021/11/07 01:13:29;;;;;;;41.73;20.97;;;6.90;99.90;;;;;;4108676;28;20089;-58
2021/11/07 01:15:32;;;;;;;42.67;20.63;;;6.90;99.90;;;;;;4107394;28;20070;-62
2021/11/07 01:17:34;;;;;;;40.80;21.17;;;6.90;99.90;;;;;;4108912;28;20653;-69
2021/11/07 01:19:36;;;;;;;43.47;20.73;;;6.90;99.90;;;;;;4109726;28;20051;-68
2021/11/07 01:21:41;;;;;;;43.23;21.77;;;6.90;99.90;;;;;;4111304;28;20023;-63
2021/11/07 01:23:52;;;;;;;47.10;20.67;;;6.90;99.90;;;;;;4109490;28;20054;-58
2021/11/07 01:26:02;;;;;;;48.13;22.00;;;6.90;99.90;;;;;;4111310;28;20027;-61
2021/11/07 01:28:05;;;;;;;43.80;21.63;;;6.90;99.90;;;;;;4110179;28;20026;-64
2021/11/07 01:30:13;;;;;;;43.23;21.80;;;6.90;99.90;;;;;;4122454;28;20038;-59
2021/11/07 01:32:16;;;;;;;40.90;20.40;;;6.90;99.90;;;;;;4126321;28;20072;-61
2021/11/07 01:34:59;;;;;;;43.23;20.40;;;7.00;99.90;;;;;;4127036;28;20022;-73
2021/11/07 01:36:51;;;;;;;40.83;21.17;;;7.00;99.90;;;;;;4123622;28;20030;-58
2021/11/07 01:41:27;;;;;;;37.88;20.05;;;7.00;99.90;;;;;;4108744;28;20394;-61
2021/11/07 01:43:29;;;;;;;36.57;19.13;;;7.10;99.90;;;;;;4127099;28;20462;-60
2021/11/07 01:45:38;;;;;;;40.43;20.63;;;7.10;99.90;;;;;;4125667;28;20077;-55
2021/11/07 01:47:52;;;;;;;42.97;20.93;;;7.10;99.90;;;;;;4126646;28;20026;-59
2021/11/07 01:49:53;;;;;;;36.67;20.07;;;7.10;99.90;;;;;;4121053;28;20062;-64
2021/11/07 01:52:00;;;;;;;37.67;19.77;;;7.10;99.90;;;;;;4110873;28;20039;-72
2021/11/07 01:54:29;;;;;;;46.93;20.90;;;7.10;99.90;;;;;;4108710;28;20078;-58
2021/11/07 01:56:27;;;;;;;38.60;19.93;;;7.10;99.90;;;;;;4110722;28;20042;-62
2021/11/07 01:58:30;;;;;;;37.17;19.80;;;7.00;99.90;;;;;;4109755;28;20364;-61
2021/11/07 02:00:32;;;;;;;43.03;21.43;;;7.00;99.90;;;;;;4110834;28;20046;-67
2021/11/07 02:02:35;;;;;;;40.13;19.47;;;7.10;99.90;;;;;;4109097;28;20043;-59
2021/11/07 02:04:36;;;;;;;36.60;19.17;;;7.10;99.90;;;;;;4110778;28;20039;-59
2021/11/07 02:06:38;;;;;;;45.93;21.13;;;7.10;99.90;;;;;;4109699;28;20101;-57
2021/11/07 02:08:39;;;;;;;39.07;19.67;;;7.10;99.90;;;;;;4109572;28;20046;-60
2021/11/07 02:10:42;;;;;;;36.13;18.30;;;7.00;99.90;;;;;;4110571;28;20042;-60
2021/11/07 02:12:44;;;;;;;37.47;18.63;;;7.00;99.90;;;;;;4109739;28;20105;-59
2021/11/07 02:14:45;;;;;;;35.83;18.00;;;7.00;99.90;;;;;;4109793;28;20081;-60
2021/11/07 02:16:47;;;;;;;32.83;18.50;;;7.00;99.90;;;;;;4108396;28;20113;-64
2021/11/07 02:18:48;;;;;;;38.13;19.23;;;7.00;99.90;;;;;;4111681;28;20034;-71
2021/11/07 02:20:50;;;;;;;33.27;18.47;;;7.00;99.90;;;;;;4115881;28;20482;-70
2021/11/07 02:22:52;;;;;;;40.77;19.33;;;7.00;99.90;;;;;;4125826;28;20042;-61
2021/11/07 02:24:53;;;;;;;36.93;19.87;;;6.90;99.90;;;;;;4124917;28;20088;-60
2021/11/07 02:27:04;;;;;;;44.40;20.50;;;6.90;99.90;;;;;;4126530;28;20474;-54
2021/11/07 02:29:05;;;;;;;;;;;6.80;99.90;;;;;;4122473;28;20538;-60
2021/11/07 02:31:08;;;;;;;41.17;18.40;;;6.80;99.90;;;;;;4126485;28;19910;-59
2021/11/07 02:33:09;;;;;;;45.10;20.87;;;6.80;99.90;;;;;;4124697;28;20105;-59
2021/11/07 02:35:11;;;;;;;38.53;19.07;;;6.80;99.90;;;;;;4126361;28;20030;-60
2021/11/07 02:37:14;;;;;;;42.53;19.63;;;6.90;99.90;;;;;;4124942;28;20026;-55
2021/11/07 02:39:16;;;;;;;36.27;18.87;;;6.90;99.90;;;;;;4125503;28;20436;-59
2021/11/07 02:41:17;;;;;;;38.50;19.17;;;6.90;99.90;;;;;;4124461;28;20777;-61
2021/11/07 02:43:18;;;;;;;37.47;19.47;;;6.90;99.90;;;;;;4125157;28;20617;-60
2021/11/07 02:45:21;;;;;;;45.13;20.60;;;6.90;99.90;;;;;;4125623;28;20069;-59
2021/11/07 02:47:22;;;;;;;45.53;19.60;;;6.90;99.90;;;;;;4125064;28;20434;-62
2021/11/07 02:49:23;;;;;;;35.57;19.33;;;7.00;99.90;;;;;;4126140;28;20438;-62
2021/11/07 02:51:31;;;;;;;30.90;17.63;;;7.00;99.90;;;;;;4124934;28;20034;-65
2021/11/07 02:53:32;;;;;;;37.83;19.00;;;7.00;99.90;;;;;;4125917;28;20434;-68
2021/11/07 02:55:33;;;;;;;36.77;18.43;;;7.10;99.90;;;;;;4120635;28;20089;-66
2021/11/07 02:57:34;;;;;;;34.17;18.43;;;7.10;99.90;;;;;;4110266;28;20034;-60
2021/11/07 02:59:38;;;;;;;36.47;18.33;;;7.20;99.90;;;;;;4108286;28;20075;-60
2021/11/07 03:01:39;;;;;;;32.87;18.40;;;7.20;99.90;;;;;;4109836;28;20035;-60
2021/11/07 03:03:40;;;;;;;35.40;18.37;;;7.30;99.90;;;;;;4108195;28;21125;-57
2021/11/07 03:05:42;;;;;;;31.63;16.90;;;7.30;99.90;;;;;;4109714;28;20070;-61
2021/11/07 03:07:43;;;;;;;34.60;18.13;;;7.30;99.90;;;;;;4106914;28;20043;-59
2021/11/07 03:09:45;;;;;;;39.47;18.77;;;7.40;99.90;;;;;;4109605;28;20487;-63
2021/11/07 03:11:47;;;;;;;33.03;17.60;;;7.40;99.90;;;;;;4109023;28;20082;-67
2021/11/07 03:13:48;;;;;;;32.30;16.73;;;7.40;99.90;;;;;;4109565;28;20031;-61
2021/11/07 03:15:49;;;;;;;30.90;17.17;;;7.40;99.90;;;;;;4108562;28;20078;-60
2021/11/07 03:17:50;;;;;;;29.57;16.13;;;7.40;99.90;;;;;;4108873;28;20456;-60
2021/11/07 03:19:53;;;;;;;33.10;16.87;;;7.40;99.90;;;;;;4108592;28;20093;-64
2021/11/07 03:22:01;;;;;;;39.67;16.90;;;7.40;99.90;;;;;;4114215;28;20046;-66
2021/11/07 03:24:03;;;;;;;30.53;16.53;;;7.40;99.90;;;;;;4125404;28;20018;-59
2021/11/07 03:26:14;;;;;;;32.87;17.67;;;7.40;99.90;;;;;;4124248;28;20038;-61
2021/11/07 03:28:16;;;;;;;28.33;16.30;;;7.40;99.90;;;;;;4125125;28;20023;-61
2021/11/07 03:32:36;;;;;;;30.27;16.63;;;7.40;99.90;;;;;;4125488;28;20089;-57
2021/11/07 03:34:48;;;;;;;31.93;17.80;;;7.40;99.90;;;;;;4123427;28;20104;-57
2021/11/07 03:36:52;;;;;;;31.33;16.43;;;7.40;99.90;;;;;;4125292;28;20030;-60
2021/11/07 03:38:54;;;;;;;35.30;17.20;;;7.50;99.90;;;;;;4122735;28;20026;-60
2021/11/07 03:40:55;;;;;;;34.27;17.77;;;7.50;99.90;;;;;;4124076;28;20503;-60
2021/11/07 03:42:58;;;;;;;28.77;17.07;;;7.40;99.90;;;;;;4123683;28;20046;-61
2021/11/07 03:45:00;;;;;;;30.40;16.83;;;7.40;99.90;;;;;;4124773;28;20491;-57
2021/11/07 03:47:02;;;;;;;29.33;15.90;;;7.40;99.90;;;;;;4123267;28;20459;-60
2021/11/07 03:49:05;;;;;;;30.00;16.43;;;7.40;99.90;;;;;;4120683;28;20605;-64
2021/11/07 03:51:11;;;;;;;33.53;16.97;;;7.50;99.90;;;;;;4108002;28;20073;-66
2021/11/07 03:53:13;;;;;;;30.30;16.60;;;7.40;99.90;;;;;;4109082;28;20105;-60
2021/11/07 03:55:14;;;;;;;26.37;15.87;;;7.50;99.90;;;;;;4107324;28;20113;-59
2021/11/07 03:57:15;;;;;;;31.67;16.77;;;7.40;99.90;;;;;;4108887;28;20078;-60
2021/11/07 03:59:17;;;;;;;30.63;16.23;;;7.50;99.90;;;;;;4108198;28;20038;-62
2021/11/07 04:01:18;;;;;;;27.97;16.27;;;7.50;99.90;;;;;;4108435;28;20094;-70
2021/11/07 04:03:19;;;;;;;33.70;15.67;;;7.50;99.90;;;;;;4108236;28;20027;-60
2021/11/07 04:05:23;;;;;;;29.73;15.73;;;7.50;99.90;;;;;;4108483;28;21124;-68
2021/11/07 04:07:25;;;;;;;29.77;16.10;;;7.60;99.90;;;;;;4107854;28;20051;-60
2021/11/07 04:09:26;;;;;;;28.07;15.30;;;7.60;99.90;;;;;;4108101;28;20200;-60
2021/11/07 04:11:27;;;;;;;30.53;15.73;;;7.60;99.90;;;;;;4108425;28;20058;-64
2021/11/07 04:13:30;;;;;;;29.90;16.83;;;7.60;99.90;;;;;;4107977;28;20081;-57
2021/11/07 04:15:33;;;;;;;31.97;16.13;;;7.60;99.90;;;;;;4108239;28;20046;-56
2021/11/07 04:17:34;;;;;;;28.87;16.33;;;7.60;99.90;;;;;;4108121;28;20042;-60
2021/11/07 04:19:36;;;;;;;28.43;16.00;;;7.60;99.90;;;;;;4109079;28;20811;-57
2021/11/07 04:21:40;;;;;;;32.77;17.30;;;7.60;99.90;;;;;;4106032;28;20031;-59
2021/11/07 04:23:41;;;;;;;30.73;16.43;;;7.60;99.90;;;;;;4108575;28;20046;-60
2021/11/07 04:25:43;;;;;;;31.27;16.27;;;7.60;99.90;;;;;;4106492;28;20035;-60
2021/11/07 04:27:44;;;;;;;27.90;15.63;;;7.60;99.90;;;;;;4108582;28;20106;-59
2021/11/07 04:29:45;;;;;;;30.20;16.87;;;7.50;99.90;;;;;;4107099;28;20047;-61
2021/11/07 04:31:47;;;;;;;32.23;18.03;;;7.50;99.90;;;;;;4108629;28;20085;-61
2021/11/07 04:33:48;;;;;;;36.47;18.90;;;7.40;99.90;;;;;;4107579;28;20031;-69
2021/11/07 04:35:50;;;;;;;36.03;19.73;;;7.40;99.90;;;;;;4107026;28;20436;-66
2021/11/07 04:37:52;;;;;;;34.43;18.10;;;7.40;99.90;;;;;;4112925;28;20078;-58
2021/11/07 04:39:53;;;;;;;39.87;20.80;;;7.30;99.90;;;;;;4123487;28;20132;-63
2021/11/07 04:41:54;;;;;;;37.00;19.87;;;7.30;99.90;;;;;;4123879;28;20050;-66
2021/11/07 04:43:55;;;;;;;45.30;24.10;;;7.30;99.90;;;;;;4123900;28;20086;-67
2021/11/07 04:45:57;;;;;;;48.60;25.23;;;7.30;99.90;;;;;;4116963;28;20546;-61
2021/11/07 04:47:58;;;;;;;45.10;25.00;;;7.20;99.90;;;;;;4123368;28;20550;-63
2021/11/07 04:49:59;;;;;;;41.37;22.43;;;7.20;99.90;;;;;;4124845;28;20097;-60
2021/11/07 04:52:01;;;;;;;37.20;19.50;;;7.20;99.90;;;;;;4124765;28;20380;-61
2021/11/07 04:54:02;;;;;;;39.17;19.43;;;7.20;99.90;;;;;;4128024;28;20088;-57
2021/11/07 04:56:03;;;;;;;36.90;18.30;;;7.10;99.90;;;;;;4125532;28;20077;-58
2021/11/07 04:58:05;;;;;;;34.67;19.53;;;7.20;99.90;;;;;;4126571;28;20030;-60
2021/11/07 05:00:18;;;;;;;37.83;19.63;;;7.10;99.90;;;;;;4124444;28;20523;-62
2021/11/07 05:02:19;;;;;;;36.10;19.40;;;7.10;99.90;;;;;;4126995;28;20038;-62
2021/11/07 05:04:20;;;;;;;38.77;20.87;;;7.10;99.90;;;;;;4125544;28;20093;-59
2021/11/07 05:06:22;;;;;;;33.27;19.13;;;7.20;99.90;;;;;;4127439;28;20026;-67
2021/11/07 05:08:23;;;;;;;36.40;18.97;;;7.20;99.90;;;;;;4126739;28;20038;-62
2021/11/07 05:10:26;;;;;;;36.07;18.93;;;7.30;99.90;;;;;;4127073;28;20856;-62
2021/11/07 05:12:28;;;;;;;38.57;18.97;;;7.30;99.90;;;;;;4127037;28;20030;-59
2021/11/07 05:14:29;;;;;;;35.40;19.17;;;7.40;99.90;;;;;;4124735;28;20132;-61
2021/11/07 05:16:31;;;;;;;38.03;18.27;;;7.40;99.90;;;;;;4127358;28;20046;-61
2021/11/07 05:18:32;;;;;;;32.27;17.13;;;7.50;99.90;;;;;;4125572;28;20042;-60
2021/11/07 05:20:33;;;;;;;34.60;18.70;;;7.60;99.90;;;;;;4127197;28;20475;-59
2021/11/07 05:22:35;;;;;;;30.47;17.17;;;7.60;99.90;;;;;;4126152;28;20553;-64
2021/11/07 05:24:36;;;;;;;33.40;18.07;;;7.70;99.90;;;;;;4125020;28;20098;-66
2021/11/07 05:26:37;;;;;;;37.40;19.57;;;7.70;99.90;;;;;;4109533;28;20090;-61
2021/11/07 05:28:38;;;;;;;33.60;18.63;;;7.70;99.90;;;;;;4111175;28;20035;-57
2021/11/07 05:30:40;;;;;;;31.40;16.83;;;7.80;99.90;;;;;;4109544;28;20389;-68
2021/11/07 05:32:41;;;;;;;31.87;17.23;;;7.80;99.90;;;;;;4111349;28;20035;-61
2021/11/07 05:34:45;;;;;;;29.00;15.80;;;7.90;99.90;;;;;;4109717;28;20035;-60
2021/11/07 05:36:46;;;;;;;27.10;15.93;;;7.90;99.90;;;;;;4109779;28;20125;-58
2021/11/07 05:38:48;;;;;;;29.70;16.93;;;8.00;99.90;;;;;;4110183;28;20041;-60
2021/11/07 05:40:49;;;;;;;27.20;16.40;;;8.00;99.90;;;;;;4110317;28;20479;-57
2021/11/07 05:42:53;;;;;;;28.50;16.87;;;8.00;99.90;;;;;;4111345;28;20384;-59
2021/11/07 05:44:54;;;;;;;31.57;16.83;;;8.10;99.90;;;;;;4110027;28;20082;-58
2021/11/07 05:46:56;;;;;;;30.53;17.53;;;8.10;99.90;;;;;;4108912;28;20050;-58
2021/11/07 05:48:57;;;;;;;31.10;16.70;;;8.20;99.90;;;;;;4109221;28;20038;-59
2021/11/07 05:50:58;;;;;;;31.10;16.90;;;8.20;99.90;;;;;;4110316;28;20109;-59
2021/11/07 05:53:00;;;;;;;29.77;16.90;;;8.20;99.90;;;;;;4108990;28;20093;-59
2021/11/07 05:55:01;;;;;;;26.73;15.17;;;8.30;99.90;;;;;;4124131;28;20092;-58
2021/11/07 05:57:03;;;;;;;27.23;15.97;;;8.30;99.90;;;;;;4118925;28;20052;-66
2021/11/07 05:59:04;;;;;;;28.93;15.77;;;8.30;99.90;;;;;;4110313;28;20085;-65
2021/11/07 06:01:05;;;;;;;28.67;16.83;;;8.30;99.90;;;;;;4108785;28;20101;-59
2021/11/07 06:03:07;;;;;;;29.47;16.37;;;8.30;99.90;;;;;;4110327;28;20031;-60
2021/11/07 06:05:08;;;;;;;29.80;16.37;;;8.30;99.90;;;;;;4109013;28;20494;-58
2021/11/07 06:07:09;;;;;;;29.20;16.57;;;8.30;99.90;;;;;;4110825;28;20030;-65
2021/11/07 06:09:11;;;;;;;28.40;16.33;;;8.30;99.90;;;;;;4109542;28;20039;-61
2021/11/07 06:11:12;;;;;;;31.27;16.37;;;8.40;99.90;;;;;;4110756;28;20406;-68
2021/11/07 06:13:13;;;;;;;30.20;17.03;;;8.40;99.90;;;;;;4107676;28;20030;-63
2021/11/07 06:15:15;;;;;;;30.37;15.57;;;8.40;99.90;;;;;;4109655;28;20495;-60
2021/11/07 06:17:16;;;;;;;30.43;16.17;;;8.50;99.90;;;;;;4120324;28;20018;-60
2021/11/07 06:19:17;;;;;;;29.27;17.07;;;8.50;99.90;;;;;;4124720;28;20039;-61
2021/11/07 06:21:18;;;;;;;29.20;16.33;;;8.60;99.90;;;;;;4125837;28;20548;-61
2021/11/07 06:23:20;;;;;;;28.40;16.47;;;8.60;99.90;;;;;;4124722;28;20093;-64
2021/11/07 06:25:21;;;;;;;33.03;16.47;;;8.70;99.90;;;;;;4124043;28;20385;-59
2021/11/07 06:27:26;;;;;;;31.50;16.43;;;8.70;99.90;;;;;;4125039;28;20038;-70
2021/11/07 06:29:27;;;;;;;34.73;16.60;;;8.70;99.90;;;;;;4125569;28;20093;-60
2021/11/07 06:31:29;;;;;;;33.40;16.80;;;8.80;99.90;;;;;;4125316;28;20085;-58
2021/11/07 06:33:30;;;;;;;32.00;17.43;;;8.80;99.90;;;;;;4124657;28;20459;-60
2021/11/07 06:35:31;;;;;;;31.00;16.83;;;8.80;99.90;;;;;;4124439;28;20466;-62
2021/11/07 06:37:32;;;;;;;27.80;15.93;;;8.70;99.90;;;;;;4125256;28;20049;-65
2021/11/07 06:39:34;;;;;;;32.80;16.33;;;8.80;99.90;;;;;;4124615;28;20038;-59
2021/11/07 06:41:36;;;;;;;31.17;17.40;;;8.90;99.90;;;;;;4124285;28;20495;-63
2021/11/07 06:43:37;;;;;;;26.93;15.57;;;8.90;99.90;;;;;;4123367;28;20034;-69
2021/11/07 06:45:39;;;;;;;28.37;16.50;;;8.90;99.90;;;;;;4124075;28;20038;-57
2021/11/07 06:47:41;;;;;;;25.93;15.40;;;8.90;99.90;;;;;;4123956;28;20108;-61
2021/11/07 06:49:42;;;;;;;28.87;14.83;;;9.00;99.90;;;;;;4124885;28;20034;-62
2021/11/07 06:51:45;;;;;;;29.40;15.80;;;9.00;99.90;;;;;;4123225;28;20443;-61
2021/11/07 06:53:48;;;;;;;31.20;15.00;;;9.00;99.90;;;;;;4123764;28;20085;-65
2021/11/07 06:55:50;;;;;;;31.20;16.10;;;9.00;99.90;;;;;;4124693;28;20042;-65
2021/11/07 06:57:51;;;;;;;31.43;17.97;;;9.10;99.90;;;;;;4124704;28;20455;-63
2021/11/07 06:59:52;;;;;;;26.03;15.53;;;9.10;99.90;;;;;;4124937;28;20026;-61
2021/11/07 07:01:54;;;;;;;32.40;16.77;;;9.10;99.90;;;;;;4123827;28;20053;-63
2021/11/07 07:03:55;;;;;;;25.17;15.97;;;9.20;99.90;;;;;;4124624;28;20031;-66
2021/11/07 07:05:56;;;;;;;31.70;15.87;;;9.20;99.90;;;;;;4124149;28;20088;-59
2021/11/07 07:08:07;;;;;;;26.50;14.73;;;9.30;99.90;;;;;;4124984;28;20494;-69
2021/11/07 07:10:12;;;;;;;26.40;15.20;;;9.30;99.90;;;;;;4123542;28;20117;-63
2021/11/07 07:12:27;;;;;;;23.57;14.83;;;9.40;99.90;;;;;;4122756;28;20042;-67
2021/11/07 07:14:35;;;;;;;24.13;14.60;;;9.40;99.90;;;;;;4123513;28;20026;-60
2021/11/07 07:19:06;;;;;;;29.83;14.68;;;9.50;99.90;;;;;;4124294;28;20453;-68
2021/11/07 07:24:05;;;;;;;26.50;15.13;;;9.60;99.90;;;;;;4123765;28;20104;-58
2021/11/07 07:30:45;;;;;;;24.08;15.02;;;9.70;99.90;;;;;;4126208;28;20438;-65
2021/11/07 07:32:52;;;;;;;27.47;16.07;;;9.70;99.90;;;;;;4124008;28;20769;-68
2021/11/07 07:34:55;;;;;;;29.90;16.83;;;9.70;99.90;;;;;;4124121;28;20486;-62
2021/11/07 07:36:56;;;;;;;29.47;17.47;;;9.60;99.90;;;;;;4118972;28;20113;-61
2021/11/07 07:38:58;;;;;;;32.43;16.70;;;9.60;99.90;;;;;;4108112;28;20030;-61
2021/11/07 07:40:59;;;;;;;27.77;16.70;;;9.60;99.90;;;;;;4107927;28;20150;-64
2021/11/07 07:43:01;;;;;;;31.57;18.10;;;9.60;99.90;;;;;;4107357;28;20050;-58
2021/11/07 07:45:03;;;;;;;31.97;18.23;;;9.60;99.90;;;;;;4110792;28;20034;-61
2021/11/07 07:47:04;;;;;;;33.50;18.20;;;9.70;99.90;;;;;;4124039;28;20053;-63
2021/11/07 07:49:05;;;;;;;29.97;17.27;;;9.70;99.90;;;;;;4122643;28;20038;-60
2021/11/07 07:51:07;;;;;;;27.37;16.50;;;9.70;99.90;;;;;;4125218;28;20037;-58
2021/11/07 07:53:09;;;;;;;28.60;17.73;;;9.70;99.90;;;;;;4123300;28;20042;-58
2021/11/07 07:55:11;;;;;;;28.40;16.17;;;9.70;99.90;;;;;;4124413;28;20461;-56
2021/11/07 07:57:13;;;;;;;30.93;18.10;;;9.70;99.90;;;;;;4123709;28;20077;-66
2021/11/07 07:59:15;;;;;;;30.63;17.67;;;9.70;99.90;;;;;;4124400;28;20026;-60
2021/11/07 08:01:16;;;;;;;31.13;18.27;;;9.80;99.90;;;;;;4123602;28;20093;-54
2021/11/07 08:03:17;;;;;;;27.37;16.23;;;9.80;99.90;;;;;;4124048;28;20449;-63
2021/11/07 08:05:18;;;;;;;29.77;18.43;;;9.90;99.90;;;;;;4123578;28;20042;-63
2021/11/07 08:07:19;;;;;;;30.30;18.33;;;9.90;99.90;;;;;;4123439;28;20088;-60
2021/11/07 08:09:21;;;;;;;27.37;17.50;;;9.90;99.90;;;;;;4124900;28;20118;-59
2021/11/07 08:11:22;;;;;;;29.30;17.53;;;9.90;99.90;;;;;;4123650;28;20046;-56
2021/11/07 08:13:24;;;;;;;28.37;17.10;;;10.00;99.90;;;;;;4123384;28;20490;-59
2021/11/07 08:15:25;;;;;;;28.57;16.20;;;10.00;99.90;;;;;;4123009;28;20077;-61
2021/11/07 08:17:27;;;;;;;27.40;16.60;;;10.00;99.90;;;;;;4124730;28;20034;-68
2021/11/07 08:19:28;;;;;;;31.93;18.07;;;10.00;99.90;;;;;;4123667;28;20022;-61
2021/11/07 08:21:36;;;;;;;29.17;17.33;;;10.00;99.90;;;;;;4123924;28;20042;-63
2021/11/07 08:23:38;;;;;;;28.13;16.80;;;10.10;99.90;;;;;;4123306;28;20487;-68
2021/11/07 08:25:39;;;;;;;28.70;16.07;;;10.10;99.90;;;;;;4122305;28;20438;-62
2021/11/07 08:27:44;;;;;;;29.17;17.27;;;10.10;99.90;;;;;;4125336;28;20562;-57
2021/11/07 08:29:50;;;;;;;28.93;18.00;;;10.10;99.90;;;;;;4126490;28;20058;-63
2021/11/07 08:31:52;;;;;;;30.23;16.63;;;10.10;99.90;;;;;;4126724;28;20419;-64
2021/11/07 08:33:54;;;;;;;27.97;17.60;;;10.10;99.90;;;;;;4126989;28;20030;-55
2021/11/07 08:36:02;;;;;;;30.53;17.13;;;10.10;99.90;;;;;;4125983;28;20076;-60
2021/11/07 08:38:07;;;;;;;35.63;19.50;;;10.20;99.90;;;;;;4124618;28;20093;-65
2021/11/07 08:40:11;;;;;;;28.50;16.77;;;10.20;99.90;;;;;;4127205;28;20920;-61
2021/11/07 08:42:36;;;;;;;29.23;17.77;;;10.30;99.90;;;;;;4126453;28;21090;-69
2021/11/07 09:01:00;;;;;;;30.50;17.83;;;10.60;99.90;;;;;;4126674;28;20100;-61
2021/11/07 09:03:28;;;;;;;25.80;16.73;;;10.70;99.90;;;;;;4123851;28;20034;-61
2021/11/07 09:05:36;;;;;;;26.07;16.50;;;10.80;99.90;;;;;;4125241;28;20054;-63
2021/11/07 09:07:51;;;;;;;27.70;16.37;;;10.80;99.90;;;;;;4125775;28;20049;-64
2021/11/07 09:10:00;;;;;;;22.50;14.53;;;10.90;99.90;;;;;;4127303;28;20042;-68
2021/11/07 09:12:01;;;;;;;27.17;15.43;;;10.90;99.90;;;;;;4125499;28;20104;-61
2021/11/07 09:14:02;;;;;;;24.50;15.17;;;10.90;99.90;;;;;;4125574;28;20038;-62
2021/11/07 09:16:04;;;;;;;27.00;15.53;;;11.00;99.90;;;;;;4124220;28;20034;-62
2021/11/07 09:18:05;;;;;;;29.10;16.17;;;11.10;99.90;;;;;;4127752;28;20096;-62
2021/11/07 09:20:08;;;;;;;29.23;15.10;;;11.20;99.90;;;;;;4125906;28;20038;-62
2021/11/07 09:22:18;;;;;;;22.77;14.23;;;11.30;99.90;;;;;;4126486;28;20096;-66
2021/11/07 09:25:05;;;;;;;23.55;14.73;;;11.40;99.90;;;;;;4125687;28;20034;-62
2021/11/07 09:26:47;;;;;;;22.23;13.43;;;11.40;99.90;;;;;;4119046;28;20042;-62
2021/11/07 09:31:06;;;;;;;24.40;14.33;;;11.50;99.90;;;;;;4127457;28;20442;-61
2021/11/07 09:33:13;;;;;;;22.00;13.47;;;11.60;99.90;;;;;;4123887;28;20078;-60
2021/11/07 09:37:42;;;;;;;23.13;14.87;;;11.70;99.90;;;;;;4124878;28;20400;-63
2021/11/07 09:40:01;;;;;;;26.90;15.00;;;11.80;99.90;;;;;;4121774;28;20053;-62
2021/11/07 09:42:28;;;;;;;21.83;13.97;;;11.80;99.90;;;;;;4124994;28;20100;-65
2021/11/07 09:44:27;;;;;;;23.63;14.17;;;11.80;99.90;;;;;;4126326;28;20050;-60
2021/11/07 09:48:39;;;;;;;24.63;14.33;;;11.90;99.90;;;;;;4126559;28;20752;-59
2021/11/07 09:50:41;;;;;;;23.57;14.73;;;12.00;99.90;;;;;;4124533;28;20076;-60
2021/11/07 09:52:51;;;;;;;25.07;14.60;;;12.10;99.90;;;;;;4125607;28;20054;-57
2021/11/07 09:55:01;;;;;;;24.83;14.65;;;12.30;99.90;;;;;;4124921;28;20446;-60
2021/11/07 09:57:03;;;;;;;23.80;14.10;;;12.40;99.90;;;;;;4124627;28;20046;-61
2021/11/07 09:59:04;;;;;;;22.50;13.93;;;12.40;99.90;;;;;;4119957;28;20042;-58
2021/11/07 10:01:06;;;;;;;22.67;13.07;;;12.50;99.90;;;;;;4122430;28;20050;-63
2021/11/07 10:03:11;;;;;;;22.40;13.87;;;12.50;99.90;;;;;;4115674;28;20034;-64
2021/11/07 10:05:13;;;;;;;27.13;15.50;;;12.50;99.90;;;;;;4126367;28;20538;-60
2021/11/07 10:07:14;;;;;;;24.40;14.47;;;12.40;99.90;;;;;;4120018;28;20093;-59
2021/11/07 10:09:34;;;;;;;21.43;13.40;;;12.40;99.90;;;;;;4125047;28;20479;-60
2021/11/07 10:11:57;;;;;;;22.92;14.77;;;12.40;99.90;;;;;;4117777;28;20105;-58
2021/11/07 10:14:20;;;;;;;20.90;13.20;;;12.40;99.90;;;;;;4126288;28;20913;-62
2021/11/07 10:16:34;;;;;;;18.57;12.33;;;12.40;99.90;;;;;;4124321;28;20487;-62
2021/11/07 10:20:45;;;;;;;18.93;12.03;;;12.50;99.90;;;;;;4124601;28;20050;-64
2021/11/07 10:22:55;;;;;;;18.43;12.43;;;12.50;99.90;;;;;;4125951;28;20042;-62
2021/11/07 10:24:57;;;;;;;19.10;12.18;;;12.60;99.90;;;;;;4124831;28;20031;-66
2021/11/07 10:27:05;;;;;;;18.00;12.37;;;12.60;99.90;;;;;;4126243;28;20442;-63
2021/11/07 10:29:09;;;;;;;24.53;13.77;;;12.70;99.90;;;;;;4124642;28;20114;-62
2021/11/07 10:31:18;;;;;;;17.50;10.77;;;12.70;99.90;;;;;;4125613;28;20089;-62
2021/11/07 10:38:51;;;;;;;18.20;11.70;;;12.90;99.90;;;;;;4124244;28;20101;-62
2021/11/07 10:52:41;;;;;;;17.77;9.90;;;13.50;99.90;;;;;;4112162;28;20113;-63
2021/11/07 10:54:42;;;;;;;12.37;9.13;;;13.40;99.90;;;;;;4108095;28;20885;-66
2021/11/07 10:56:46;;;;;;;14.67;9.33;;;13.20;99.90;;;;;;4108710;28;20061;-68
2021/11/07 10:58:47;;;;;;;16.33;9.87;;;13.10;99.90;;;;;;4107743;28;20066;-64
2021/11/07 11:00:49;;;;;;;16.27;9.87;;;13.20;99.90;;;;;;4108673;28;20039;-62
2021/11/07 11:03:05;;;;;;;15.53;9.60;;;13.20;99.90;;;;;;4109295;28;20043;-62
2021/11/07 11:05:08;;;;;;;19.07;10.83;;;13.40;99.90;;;;;;4108362;28;20827;-64
2021/11/07 11:07:12;;;;;;;17.77;10.20;;;13.40;99.90;;;;;;4107805;28;20102;-64
2021/11/07 11:09:18;;;;;;;18.43;11.30;;;13.50;99.90;;;;;;4108089;28;20094;-64
2021/11/07 11:11:32;;;;;;;17.30;11.27;;;13.60;99.90;;;;;;4108521;28;20403;-62
2021/11/07 11:13:53;;;;;;;17.10;11.13;;;13.70;99.90;;;;;;4111171;28;20097;-64
2021/11/07 11:16:13;;;;;;;15.73;9.87;;;13.80;99.90;;;;;;4123082;28;20054;-61
2021/11/07 11:21:42;;;;;;;16.23;10.00;;;13.50;99.90;;;;;;4092930;28;20031;-64
2021/11/07 11:23:53;;;;;;;13.87;9.30;;;13.60;99.90;;;;;;4121707;28;20840;-65
2021/11/07 11:26:27;;;;;;;15.70;9.70;;;13.60;99.90;;;;;;4123190;28;20105;-64
2021/11/07 11:28:47;;;;;;;14.53;9.50;;;13.60;99.90;;;;;;4124641;28;20038;-62
2021/11/07 11:35:24;;;;;;;15.47;8.10;;;13.60;99.90;;;;;;4124122;28;20085;-65
2021/11/07 11:39:42;;;;;;;24.83;13.40;;;13.70;99.90;;;;;;4124018;28;20438;-63
2021/11/07 11:41:54;;;;;;;13.00;8.65;;;13.70;99.90;;;;;;4115857;28;20101;-62
2021/11/07 11:43:56;;;;;;;11.73;7.80;;;13.80;99.90;;;;;;4108081;28;20438;-63
2021/11/07 11:46:11;;;;;;;11.63;8.37;;;13.80;99.90;;;;;;4108534;28;20052;-62
2021/11/07 11:50:55;;;;;;;15.30;9.70;;;13.80;99.90;;;;;;4109893;28;20105;-62
2021/11/07 11:55:26;;;;;;;13.67;8.20;;;13.90;99.90;;;;;;4123953;28;20080;-62
2021/11/07 12:02:23;;;;;;;12.60;8.33;;;13.70;99.90;;;;;;4125702;28;20120;-66
2021/11/07 12:04:36;;;;;;;14.10;8.87;;;13.60;99.90;;;;;;4123357;28;20442;-58
2021/11/07 12:11:35;;;;;;;13.03;7.33;;;13.40;99.90;;;;;;4124794;28;20506;-59
2021/11/07 12:13:58;;;;;;;13.70;7.90;;;13.40;99.90;;;;;;4121041;28;20136;-62
2021/11/07 12:16:06;;;;;;;13.77;8.20;;;13.40;99.90;;;;;;4124416;28;20034;-61
2021/11/07 12:18:10;;;;;;;20.53;10.13;;;13.40;99.90;;;;;;4123382;28;20034;-61
2021/11/07 12:20:20;;;;;;;14.10;8.53;;;13.30;99.90;;;;;;4122778;28;20038;-62
2021/11/07 12:22:33;;;;;;;13.52;8.23;;;13.30;99.90;;;;;;4122943;28;20046;-72
2021/11/07 12:24:39;;;;;;;13.40;8.47;;;13.30;99.90;;;;;;4120156;28;20486;-61
2021/11/07 12:26:41;;;;;;;13.30;8.63;;;13.30;99.90;;;;;;4122538;28;20038;-61
2021/11/07 12:28:44;;;;;;;16.20;10.83;;;13.20;99.90;;;;;;4124201;28;20431;-62